createdAt,value
2023-04-15T00:02:18.615Z,8.60
2023-04-15T00:04:49.063Z,8.60
2023-04-15T00:07:17.194Z,8.70
2023-04-15T00:09:44.985Z,8.80
2023-04-15T00:12:12.181Z,8.60
2023-04-15T00:14:38.838Z,8.80
2023-04-15T00:17:05.499Z,8.70
2023-04-15T00:19:32.604Z,8.70
2023-04-15T00:22:00.276Z,8.70
2023-04-15T00:24:26.938Z,8.60
2023-04-15T00:26:53.923Z,8.70
2023-04-15T00:29:21.248Z,8.70
2023-04-15T00:31:48.128Z,8.80
2023-04-15T00:34:14.979Z,8.70
2023-04-15T00:36:41.786Z,8.70
2023-04-15T00:39:08.768Z,8.60
2023-04-15T00:41:35.350Z,8.70
2023-04-15T00:44:02.475Z,8.70
2023-04-15T00:46:33.133Z,8.70
2023-04-15T00:49:00.832Z,8.60
2023-04-15T00:51:27.508Z,8.80
2023-04-15T00:53:54.518Z,8.80
2023-04-15T00:56:24.661Z,8.70
2023-04-15T00:58:52.402Z,8.70
2023-04-15T01:01:22.469Z,8.60
2023-04-15T01:03:53.262Z,8.50
2023-04-15T01:06:19.990Z,8.60
2023-04-15T01:08:46.866Z,8.60
2023-04-15T01:11:14.043Z,8.60
2023-04-15T01:13:40.906Z,8.60
2023-04-15T01:16:08.801Z,8.60
2023-04-15T01:18:38.982Z,8.60
2023-04-15T01:21:07.447Z,8.70
2023-04-15T01:23:38.732Z,8.50
2023-04-15T01:26:08.132Z,8.70
2023-04-15T01:28:36.208Z,8.60
2023-04-15T01:31:13.956Z,8.60
2023-04-15T01:33:42.676Z,8.70
2023-04-15T01:36:10.964Z,8.70
2023-04-15T01:38:38.442Z,8.80
2023-04-15T01:41:07.666Z,8.70
2023-04-15T01:43:40.212Z,8.80
2023-04-15T01:46:07.363Z,8.70
2023-04-15T01:48:34.623Z,8.70
2023-04-15T01:51:01.521Z,8.70
2023-04-15T01:53:28.286Z,8.70
2023-04-15T01:55:54.854Z,8.70
2023-04-15T01:58:22.627Z,8.70
2023-04-15T02:00:49.488Z,8.70
2023-04-15T02:03:16.346Z,8.70
2023-04-15T02:05:43.737Z,8.80
2023-04-15T02:08:10.322Z,8.70
2023-04-15T02:10:37.009Z,8.80
2023-04-15T02:13:04.457Z,8.80
2023-04-15T02:15:31.108Z,8.70
2023-04-15T02:17:59.344Z,8.80
2023-04-15T02:20:26.413Z,8.80
2023-04-15T02:22:53.070Z,8.80
2023-04-15T02:25:20.716Z,8.90
2023-04-15T02:27:47.308Z,8.80
2023-04-15T02:30:14.147Z,8.80
2023-04-15T02:32:41.529Z,8.80
2023-04-15T02:35:09.227Z,8.80
2023-04-15T02:37:40.861Z,8.80
2023-04-15T02:40:13.555Z,8.80
2023-04-15T02:42:41.110Z,8.80
2023-04-15T02:45:08.568Z,8.80
2023-04-15T02:47:36.269Z,8.80
2023-04-15T02:50:04.292Z,8.80
2023-04-15T02:52:31.222Z,8.80
2023-04-15T02:55:00.747Z,8.80
2023-04-15T02:57:31.254Z,8.70
2023-04-15T02:59:57.900Z,8.90
2023-04-15T03:02:24.768Z,8.90
2023-04-15T03:04:51.845Z,8.90
2023-04-15T03:07:19.865Z,8.80
2023-04-15T03:09:47.833Z,8.80
2023-04-15T03:12:14.876Z,8.80
2023-04-15T03:14:41.715Z,8.80
2023-04-15T03:17:08.306Z,8.80
2023-04-15T03:19:34.939Z,8.70
2023-04-15T03:22:01.592Z,8.70
2023-04-15T03:24:29.748Z,8.70
2023-04-15T03:26:57.935Z,8.70
2023-04-15T03:29:24.592Z,8.70
2023-04-15T03:31:52.572Z,8.70
2023-04-15T03:34:19.523Z,8.70
2023-04-15T03:36:46.942Z,8.80
2023-04-15T03:39:13.737Z,8.80
2023-04-15T03:41:40.820Z,8.80
2023-04-15T03:44:07.382Z,8.80
2023-04-15T03:46:34.060Z,8.80
2023-04-15T03:49:00.938Z,8.80
2023-04-15T03:51:27.658Z,8.80
2023-04-15T03:53:54.514Z,8.80
2023-04-15T03:56:21.065Z,8.80
2023-04-15T03:58:47.674Z,8.90
2023-04-15T04:01:14.566Z,8.70
2023-04-15T04:03:41.512Z,8.90
2023-04-15T04:06:08.478Z,8.90
2023-04-15T04:08:35.094Z,8.90
2023-04-15T04:11:02.083Z,8.90
2023-04-15T04:13:28.926Z,8.90
2023-04-15T04:15:56.507Z,9.00
2023-04-15T04:18:23.416Z,8.90
2023-04-15T04:20:50.051Z,8.90
2023-04-15T04:23:16.699Z,8.90
2023-04-15T04:25:43.696Z,9.00
2023-04-15T04:28:10.344Z,9.00
2023-04-15T04:30:37.174Z,8.90
2023-04-15T04:33:03.958Z,8.90
2023-04-15T04:35:30.564Z,9.00
2023-04-15T04:37:57.386Z,9.00
2023-04-15T04:40:25.116Z,8.90
2023-04-15T04:42:51.627Z,9.00
2023-04-15T04:45:18.268Z,8.90
2023-04-15T04:47:44.895Z,8.90
2023-04-15T04:50:11.659Z,9.00
2023-04-15T04:52:38.653Z,9.00
2023-04-15T04:55:05.804Z,9.10
2023-04-15T04:57:32.530Z,9.00
2023-04-15T04:59:59.137Z,9.10
2023-04-15T05:02:27.334Z,9.10
2023-04-15T05:04:54.812Z,9.10
2023-04-15T05:07:21.446Z,9.10
2023-04-15T05:09:48.172Z,9.10
2023-04-15T05:12:15.529Z,9.10
2023-04-15T05:14:42.496Z,9.10
2023-04-15T05:17:09.154Z,9.20
2023-04-15T05:19:36.065Z,9.10
2023-04-15T05:22:03.024Z,9.10
2023-04-15T05:24:29.641Z,9.20
2023-04-15T05:26:57.203Z,9.20
2023-04-15T05:29:23.933Z,9.20
2023-04-15T05:31:51.041Z,9.40
2023-04-15T05:34:17.641Z,9.30
2023-04-15T05:36:44.271Z,9.30
2023-04-15T05:39:10.945Z,9.40
2023-04-15T05:41:38.217Z,9.50
2023-04-15T05:44:05.169Z,9.40
2023-04-15T05:46:31.918Z,9.40
2023-04-15T05:48:58.621Z,9.50
2023-04-15T05:51:25.965Z,9.50
2023-04-15T05:53:52.595Z,9.50
2023-04-15T05:56:20.441Z,9.60
2023-04-15T05:58:47.168Z,9.80
2023-04-15T06:01:13.866Z,9.90
2023-04-15T06:03:40.813Z,10.10
2023-04-15T06:06:11.120Z,10.20
2023-04-15T06:08:37.729Z,10.40
2023-04-15T06:11:04.453Z,10.40
2023-04-15T06:13:31.091Z,10.50
2023-04-15T06:15:57.932Z,10.90
2023-04-15T06:18:24.678Z,11.00
2023-04-15T06:20:51.812Z,11.50
2023-04-15T06:23:18.420Z,11.60
2023-04-15T06:25:45.088Z,11.30
2023-04-15T06:28:12.453Z,11.20
2023-04-15T06:30:39.196Z,11.00
2023-04-15T06:33:06.850Z,11.60
2023-04-15T06:35:34.004Z,11.70
2023-04-15T06:38:00.706Z,12.30
2023-04-15T06:40:27.876Z,13.60
2023-04-15T06:42:55.106Z,13.30
2023-04-15T06:45:21.603Z,12.70
2023-04-15T06:47:48.129Z,12.40
2023-04-15T06:50:14.784Z,12.30
2023-04-15T06:52:41.602Z,12.30
2023-04-15T06:55:08.833Z,12.50
2023-04-15T06:57:35.634Z,12.60
2023-04-15T07:00:06.023Z,13.90
2023-04-15T07:02:32.650Z,14.50
2023-04-15T07:04:59.313Z,15.00
2023-04-15T07:07:26.491Z,14.90
2023-04-15T07:09:53.910Z,14.40
2023-04-15T07:12:20.933Z,13.90
2023-04-15T07:14:47.711Z,14.00
2023-04-15T07:17:15.973Z,13.90
2023-04-15T07:19:42.633Z,13.80
2023-04-15T07:22:09.185Z,13.70
2023-04-15T07:24:36.407Z,13.70
2023-04-15T07:27:04.264Z,13.20
2023-04-15T07:29:32.184Z,12.90
2023-04-15T07:31:59.789Z,12.60
2023-04-15T07:34:27.016Z,12.30
2023-04-15T07:36:53.612Z,12.10
2023-04-15T07:39:20.194Z,12.10
2023-04-15T07:41:46.701Z,12.10
2023-04-15T07:44:13.236Z,12.10
2023-04-15T07:46:39.906Z,12.20
2023-04-15T07:49:07.758Z,12.20
2023-04-15T07:51:34.579Z,12.10
2023-04-15T07:54:01.439Z,12.40
2023-04-15T07:56:27.983Z,12.20
2023-04-15T07:58:54.672Z,12.40
2023-04-15T08:01:21.864Z,12.70
2023-04-15T08:03:48.902Z,12.70
2023-04-15T08:06:15.623Z,12.40
2023-04-15T08:08:43.208Z,12.30
2023-04-15T08:11:09.883Z,12.40
2023-04-15T08:13:36.428Z,12.30
2023-04-15T08:16:39.986Z,12.30
2023-04-15T08:19:09.610Z,12.40
2023-04-15T08:21:36.725Z,12.20
2023-04-15T08:24:04.122Z,12.30
2023-04-15T08:26:31.249Z,12.20
2023-04-15T08:29:00.252Z,12.10
2023-04-15T08:31:27.492Z,12.10
2023-04-15T08:33:55.436Z,11.90
2023-04-15T08:36:22.307Z,11.80
2023-04-15T08:38:48.918Z,11.80
2023-04-15T08:41:25.491Z,11.90
2023-04-15T08:44:02.156Z,11.90
2023-04-15T08:46:31.428Z,11.80
2023-04-15T08:48:58.986Z,11.80
2023-04-15T08:51:26.502Z,12.00
2023-04-15T08:53:53.277Z,12.50
2023-04-15T08:56:24.719Z,12.30
2023-04-15T08:58:51.448Z,12.30
2023-04-15T09:01:18.510Z,12.20
2023-04-15T09:03:47.770Z,12.20
2023-04-15T09:06:17.519Z,12.10
2023-04-15T09:08:46.712Z,12.20
2023-04-15T09:11:19.374Z,12.30
2023-04-15T09:13:46.994Z,12.60
2023-04-15T09:16:13.895Z,12.20
2023-04-15T09:18:40.391Z,11.90
2023-04-15T09:21:09.452Z,12.00
2023-04-15T09:23:36.290Z,12.10
2023-04-15T09:26:03.900Z,12.00
2023-04-15T09:28:31.178Z,12.20
2023-04-15T09:31:02.229Z,12.50
2023-04-15T09:33:30.517Z,12.50
2023-04-15T09:35:58.740Z,12.40
2023-04-15T09:38:26.721Z,12.20
2023-04-15T09:40:56.121Z,12.20
2023-04-15T09:43:23.031Z,12.40
2023-04-15T09:45:52.500Z,12.50
2023-04-15T09:48:27.327Z,12.40
2023-04-15T09:50:55.039Z,12.50
2023-04-15T09:53:23.653Z,12.40
2023-04-15T09:55:58.252Z,12.40
2023-04-15T09:58:31.617Z,12.30
2023-04-15T10:01:01.950Z,12.40
2023-04-15T10:03:31.236Z,12.20
2023-04-15T10:06:00.235Z,12.40
2023-04-15T10:08:32.993Z,12.20
2023-04-15T10:11:03.046Z,12.30
2023-04-15T10:13:35.146Z,12.10
2023-04-15T10:16:16.486Z,12.30
2023-04-15T10:18:46.576Z,12.40
2023-04-15T10:21:16.432Z,12.20
2023-04-15T10:23:47.967Z,12.20
2023-04-15T10:26:15.570Z,12.20
2023-04-15T10:28:42.188Z,12.40
2023-04-15T10:31:10.253Z,12.00
2023-04-15T10:33:38.001Z,12.10
2023-04-15T10:36:06.552Z,12.00
2023-04-15T10:38:42.138Z,12.00
2023-04-15T10:41:21.838Z,12.20
2023-04-15T10:44:02.609Z,12.40
2023-04-15T10:46:38.062Z,12.40
2023-04-15T10:49:15.682Z,12.60
2023-04-15T10:52:03.207Z,12.60
2023-04-15T10:54:30.035Z,12.50
2023-04-15T10:57:06.236Z,12.40
2023-04-15T10:59:36.463Z,12.70
2023-04-15T11:02:06.040Z,12.50
2023-04-15T11:05:00.357Z,12.40
2023-04-15T11:07:46.779Z,12.20
2023-04-15T11:10:26.278Z,12.30
2023-04-15T11:12:55.113Z,12.40
2023-04-15T11:15:41.148Z,12.30
2023-04-15T11:18:23.258Z,12.40
2023-04-15T11:20:59.971Z,12.30
2023-04-15T11:23:37.969Z,12.30
2023-04-15T11:26:09.370Z,12.20
2023-04-15T11:28:38.761Z,12.50
2023-04-15T11:31:18.361Z,12.40
2023-04-15T11:33:55.939Z,12.40
2023-04-15T11:36:26.539Z,12.50
2023-04-15T11:38:53.357Z,12.30
2023-04-15T11:41:23.715Z,12.40
2023-04-15T11:43:53.629Z,12.50
2023-04-15T11:46:22.011Z,12.60
2023-04-15T11:48:48.666Z,12.30
2023-04-15T11:51:15.609Z,12.30
2023-04-15T11:53:46.425Z,12.30
2023-04-15T11:56:21.207Z,12.60
2023-04-15T11:58:51.513Z,12.60
2023-04-15T12:01:19.247Z,12.30
2023-04-15T12:04:03.120Z,12.40
2023-04-15T12:06:37.477Z,12.40
2023-04-15T12:09:07.045Z,12.40
2023-04-15T12:11:41.002Z,12.40
2023-04-15T12:14:13.691Z,12.20
2023-04-15T12:16:47.936Z,12.10
2023-04-15T12:19:37.816Z,12.10
2023-04-15T12:22:06.745Z,12.10
2023-04-15T12:24:35.015Z,12.00
2023-04-15T12:27:09.822Z,12.10
2023-04-15T12:29:38.621Z,12.30
2023-04-15T12:32:05.388Z,12.40
2023-04-15T12:34:34.680Z,12.30
2023-04-15T12:37:03.284Z,12.30
2023-04-15T12:39:36.690Z,12.60
2023-04-15T12:42:04.547Z,12.60
2023-04-15T12:44:31.808Z,12.60
2023-04-15T12:46:58.675Z,12.40
2023-04-15T12:49:27.068Z,12.60
2023-04-15T12:51:55.427Z,12.80
2023-04-15T12:54:22.467Z,12.50
2023-04-15T12:56:50.668Z,12.40
2023-04-15T12:59:21.353Z,12.20
2023-04-15T13:01:49.068Z,12.30
2023-04-15T13:04:16.748Z,12.40
2023-04-15T13:06:43.580Z,12.40
2023-04-15T13:09:10.468Z,12.20
2023-04-15T13:11:37.200Z,12.20
2023-04-15T13:14:05.607Z,12.00
2023-04-15T13:16:33.197Z,12.20
2023-04-15T13:19:01.093Z,12.20
2023-04-15T13:21:27.777Z,12.50
2023-04-15T13:23:54.630Z,12.30
2023-04-15T13:26:21.539Z,12.30
2023-04-15T13:28:48.287Z,12.40
2023-04-15T13:31:14.880Z,12.30
2023-04-15T13:33:41.695Z,12.30
2023-04-15T13:36:09.076Z,12.30
2023-04-15T13:38:36.348Z,12.50
2023-04-15T13:41:03.124Z,12.20
2023-04-15T13:43:29.617Z,12.10
2023-04-15T13:45:56.520Z,12.10
2023-04-15T13:48:23.183Z,11.80
2023-04-15T13:50:50.468Z,12.20
2023-04-15T13:53:17.086Z,12.20
2023-04-15T13:55:43.825Z,12.20
2023-04-15T13:58:11.224Z,12.30
2023-04-15T14:00:37.841Z,12.20
2023-04-15T14:03:05.156Z,12.30
2023-04-15T14:05:32.957Z,12.20
2023-04-15T14:08:00.241Z,12.10
2023-04-15T14:10:26.812Z,12.00
2023-04-15T14:12:53.364Z,11.90
2023-04-15T14:15:19.992Z,11.80
2023-04-15T14:17:46.604Z,11.80
2023-04-15T14:20:14.516Z,11.90
2023-04-15T14:22:43.052Z,11.80
2023-04-15T14:25:13.171Z,12.00
2023-04-15T14:27:43.985Z,12.00
2023-04-15T14:30:11.724Z,12.00
2023-04-15T14:32:38.297Z,12.10
2023-04-15T14:35:05.965Z,12.10
2023-04-15T14:37:32.982Z,11.90
2023-04-15T14:39:59.549Z,12.10
2023-04-15T14:42:26.105Z,12.00
2023-04-15T14:44:52.997Z,12.00
2023-04-15T14:47:19.820Z,11.90
2023-04-15T14:49:46.502Z,11.80
2023-04-15T14:52:13.824Z,11.70
2023-04-15T14:54:40.970Z,11.60
2023-04-15T14:57:08.849Z,11.50
2023-04-15T14:59:35.585Z,11.50
2023-04-15T15:02:02.335Z,11.60
2023-04-15T15:04:29.414Z,11.40
2023-04-15T15:06:56.529Z,11.50
2023-04-15T15:09:23.944Z,11.50
2023-04-15T15:11:51.009Z,11.60
2023-04-15T15:14:17.600Z,11.70
2023-04-15T15:16:44.322Z,11.60
2023-04-15T15:19:11.096Z,11.70
2023-04-15T15:21:37.772Z,11.60
2023-04-15T15:24:04.637Z,11.60
2023-04-15T15:26:31.447Z,11.80
2023-04-15T15:28:58.395Z,11.60
2023-04-15T15:31:24.966Z,11.80
2023-04-15T15:33:52.990Z,11.70
2023-04-15T15:36:19.939Z,11.60
2023-04-15T15:38:46.583Z,11.70
2023-04-15T15:41:13.153Z,11.70
2023-04-15T15:43:40.028Z,11.70
2023-04-15T15:46:06.519Z,11.70
2023-04-15T15:48:33.081Z,11.60
2023-04-15T15:50:59.672Z,11.70
2023-04-15T15:53:26.424Z,11.70
2023-04-15T15:55:54.064Z,11.50
2023-04-15T15:58:20.776Z,11.70
2023-04-15T16:00:47.474Z,11.80
2023-04-15T16:03:14.148Z,11.50
2023-04-15T16:05:40.776Z,11.50
2023-04-15T16:08:07.465Z,11.50
2023-04-15T16:10:34.096Z,11.50
2023-04-15T16:13:00.768Z,11.40
2023-04-15T16:15:28.869Z,11.40
2023-04-15T16:17:55.799Z,11.40
2023-04-15T16:20:22.402Z,11.30
2023-04-15T16:22:48.884Z,11.30
2023-04-15T16:25:15.475Z,11.30
2023-04-15T16:27:57.235Z,11.50
2023-04-15T16:30:26.083Z,11.40
2023-04-15T16:32:52.763Z,11.40
2023-04-15T16:35:20.235Z,11.40
2023-04-15T16:37:47.154Z,11.40
2023-04-15T16:40:13.743Z,11.40
2023-04-15T16:42:43.997Z,11.50
2023-04-15T16:45:11.267Z,11.30
2023-04-15T16:47:38.109Z,11.50
2023-04-15T16:52:38.753Z,11.20
2023-04-15T16:55:05.354Z,11.20
2023-04-15T16:57:50.662Z,11.20
2023-04-15T17:00:18.672Z,11.30
2023-04-15T17:02:45.785Z,11.20
2023-04-15T17:05:12.354Z,11.30
2023-04-15T17:07:38.952Z,11.30
2023-04-15T17:10:08.746Z,11.30
2023-04-15T17:12:35.341Z,11.30
2023-04-15T17:15:01.883Z,11.40
2023-04-15T17:17:28.458Z,11.40
2023-04-15T17:19:55.291Z,11.20
2023-04-15T17:22:25.104Z,11.10
2023-04-15T17:24:51.887Z,11.10
2023-04-15T17:27:18.348Z,11.20
2023-04-15T17:29:44.899Z,11.30
2023-04-15T17:32:13.611Z,11.20
2023-04-15T17:34:49.667Z,11.10
2023-04-15T17:37:17.333Z,11.10
2023-04-15T17:39:43.870Z,11.10
2023-04-15T17:42:13.773Z,11.10
2023-04-15T17:44:40.283Z,11.10
2023-04-15T17:47:07.353Z,11.00
2023-04-15T17:49:34.312Z,11.10
2023-04-15T17:52:04.710Z,11.10
2023-04-15T17:54:31.330Z,11.10
2023-04-15T17:56:58.060Z,11.00
2023-04-15T17:59:24.511Z,10.90
2023-04-15T18:01:51.148Z,11.10
2023-04-15T18:04:17.734Z,11.10
2023-04-15T18:06:44.323Z,11.10
2023-04-15T18:09:11.300Z,11.00
2023-04-15T18:11:43.970Z,11.00
2023-04-15T18:14:11.304Z,11.10
2023-04-15T18:16:40.182Z,11.00
2023-04-15T18:19:06.940Z,11.10
2023-04-15T18:21:33.459Z,11.00
2023-04-15T18:23:59.904Z,11.00
2023-04-15T18:26:27.629Z,10.90
2023-04-15T18:28:55.168Z,11.00
2023-04-15T18:31:21.681Z,10.90
2023-04-15T18:33:48.521Z,10.90
2023-04-15T18:36:15.042Z,11.00
2023-04-15T18:38:41.680Z,10.90
2023-04-15T18:41:09.996Z,10.90
2023-04-15T18:43:36.624Z,10.90
2023-04-15T18:46:03.999Z,10.90
2023-04-15T18:48:30.957Z,10.70
2023-04-15T18:50:58.612Z,10.80
2023-04-15T18:53:25.066Z,10.80
2023-04-15T18:55:51.774Z,10.70
2023-04-15T18:58:23.993Z,10.90
2023-04-15T19:00:50.490Z,10.80
2023-04-15T19:03:17.118Z,10.90
2023-04-15T19:05:43.944Z,10.70
2023-04-15T19:08:10.808Z,10.80
2023-04-15T19:10:38.151Z,10.90
2023-04-15T19:13:12.062Z,10.80
2023-04-15T19:15:38.552Z,10.90
2023-04-15T19:18:10.480Z,10.80
2023-04-15T19:20:40.392Z,10.80
2023-04-15T19:23:07.125Z,10.70
2023-04-15T19:25:33.660Z,10.70
2023-04-15T19:28:00.307Z,10.70
2023-04-15T19:30:26.774Z,10.70
2023-04-15T19:32:53.380Z,10.70
2023-04-15T19:35:20.778Z,10.80
2023-04-15T19:37:47.806Z,10.60
2023-04-15T19:40:14.460Z,10.70
2023-04-15T19:42:41.242Z,10.70
2023-04-15T19:45:08.154Z,10.70
2023-04-15T19:47:34.932Z,10.70
2023-04-15T19:50:01.627Z,10.70
2023-04-15T19:52:28.149Z,10.80
2023-04-15T19:54:54.651Z,10.80
2023-04-15T19:57:21.201Z,10.70
2023-04-15T19:59:47.917Z,10.70
2023-04-15T20:02:14.555Z,10.60
2023-04-15T20:04:41.352Z,10.60
2023-04-15T20:07:08.301Z,10.60
2023-04-15T20:09:35.193Z,10.60
2023-04-15T20:12:48.058Z,10.60
2023-04-15T20:14:48.208Z,10.60
2023-04-15T20:17:16.496Z,10.70
2023-04-15T20:19:43.140Z,10.50
2023-04-15T20:22:09.788Z,10.60
2023-04-15T20:24:36.351Z,10.60
2023-04-15T20:27:03.853Z,10.70
2023-04-15T20:29:30.466Z,10.70
2023-04-15T20:31:57.762Z,10.60
2023-04-15T20:34:24.497Z,10.70
2023-04-15T20:36:51.279Z,10.70
2023-04-15T20:39:17.762Z,10.70
2023-04-15T20:41:46.296Z,10.70
2023-04-15T20:44:12.810Z,10.80
2023-04-15T20:46:39.307Z,10.60
2023-04-15T20:49:06.096Z,10.70
2023-04-15T20:51:37.878Z,10.70
2023-04-15T20:54:04.976Z,10.70
2023-04-15T20:56:31.743Z,10.80
2023-04-15T20:58:59.060Z,10.70
2023-04-15T21:01:26.053Z,10.80
2023-04-15T21:03:52.647Z,10.60
2023-04-15T21:06:19.195Z,10.70
2023-04-15T21:08:45.828Z,10.70
2023-04-15T21:11:14.853Z,10.70
2023-04-15T21:13:56.984Z,10.50
2023-04-15T21:16:23.746Z,10.60
2023-04-15T21:18:50.983Z,10.70
2023-04-15T21:21:17.647Z,10.60
2023-04-15T21:23:44.273Z,10.60
2023-04-15T21:26:11.054Z,10.70
2023-04-15T21:28:39.201Z,10.60
2023-04-15T21:31:06.647Z,10.60
2023-04-15T21:33:33.498Z,10.60
2023-04-15T21:36:00.144Z,10.60
2023-04-15T21:38:26.791Z,10.50
2023-04-15T21:40:53.545Z,10.60
2023-04-15T21:43:24.194Z,10.50
2023-04-15T21:46:20.872Z,10.60
2023-04-15T21:48:37.456Z,10.60
2023-04-15T21:51:04.314Z,10.50
2023-04-15T21:53:31.252Z,10.50
2023-04-15T21:55:58.246Z,10.50
2023-04-15T21:58:24.820Z,10.50
2023-04-15T22:00:57.257Z,10.60
2023-04-15T22:03:24.428Z,10.60
2023-04-15T22:05:51.236Z,10.60
2023-04-15T22:08:17.798Z,10.50
2023-04-15T22:10:44.416Z,10.50
2023-04-15T22:13:18.545Z,10.50
2023-04-15T22:15:48.959Z,10.60
2023-04-15T22:18:16.156Z,10.40
2023-04-15T22:20:45.995Z,10.50
2023-04-15T22:23:12.541Z,10.40
2023-04-15T22:25:39.259Z,10.60
2023-04-15T22:28:08.759Z,10.50
2023-04-15T22:30:39.604Z,10.30
2023-04-15T22:33:06.914Z,10.50
2023-04-15T22:35:34.436Z,10.50
2023-04-15T22:38:01.406Z,10.50
2023-04-15T22:40:28.736Z,10.60
2023-04-15T22:42:56.257Z,10.60
2023-04-15T22:45:22.964Z,10.60
2023-04-15T22:47:49.515Z,10.70
2023-04-15T22:50:16.158Z,10.70
2023-04-15T22:52:46.041Z,10.70
2023-04-15T22:55:12.796Z,10.50
2023-04-15T22:57:39.407Z,10.60
2023-04-15T23:00:07.351Z,10.50
2023-04-15T23:02:34.745Z,10.60
2023-04-15T23:05:04.180Z,10.70
2023-04-15T23:07:39.361Z,10.60
2023-04-15T23:10:07.043Z,10.60
2023-04-15T23:12:33.553Z,10.60
2023-04-15T23:15:00.160Z,10.60
2023-04-15T23:17:27.113Z,10.60
2023-04-15T23:19:53.679Z,10.50
2023-04-15T23:22:20.168Z,10.50
2023-04-15T23:24:46.648Z,10.40
2023-04-15T23:27:13.119Z,10.40
2023-04-15T23:29:39.674Z,10.40
2023-04-15T23:32:06.670Z,10.60
2023-04-15T23:34:33.224Z,10.70
2023-04-15T23:36:59.779Z,10.70
2023-04-15T23:39:26.470Z,10.70
2023-04-15T23:41:53.447Z,10.70
2023-04-15T23:44:20.386Z,10.60
2023-04-15T23:46:47.139Z,10.70
2023-04-15T23:49:13.658Z,10.50
2023-04-15T23:51:40.254Z,10.50
2023-04-15T23:54:06.828Z,10.50
2023-04-15T23:56:33.460Z,10.60
2023-04-15T23:58:59.919Z,10.50
